Mc Kinney, Texas
Current Conditions -  °F | °C
As of 10:53 PM on Monday 26 Jan 2015 (Local Time) from KTKI Reporting Station
Clear Clear  
Wind Chill: 47°   Ceiling: Unl
Heat Index: 47°   Visibility: 10mi
Dew Point: 38°   Wind: 3mph
Humidity: 71%   Direction: NA
Pressure: 30.07"   Gusts: NA
Location:  33.1951°N, 96.6642°W
Report Text: KTKI 270453Z AUTO VRB03KT 10SM CLR 08/03 A3007 RMK AO2 SLP190 T00830033
Loading
Personal Weather Stations






























Interactive Weather Map New forecast layout! Learn more

10-Day Weather Forecast

Advertisements
Track Severe Weather on mobile